Time;durP1;ratioP1;P1;durP2;ratioP2;P2;SDS_P1;SDS_P2;PMS_P1;PMS_P2;Temp;Humidity;BMP_temperature;BMP_pressure;BME280_temperature;BME280_humidity;BME280_pressure;Samples;Min_cycle;Max_cycle;Signal;HPM_P1;HPM_P2
2021/12/19 00:00:13;;;;;;;54.28;29.58;;;2.10;80.20;;;-0.10;91.46;97527.88;4996407;28;20167;-68
2021/12/19 00:10:47;;;;;;;61.50;33.90;;;2.00;80.70;;;-0.18;91.21;97504.22;4998699;28;20040;-68
2021/12/19 00:13:13;;;;;;;66.60;35.03;;;1.90;80.80;;;-0.18;91.55;97495.63;4989974;28;20037;-68
2021/12/19 00:15:39;;;;;;;61.75;32.95;;;1.90;81.00;;;-0.19;92.19;97488.81;4989975;28;20069;-67
2021/12/19 00:18:05;;;;;;;64.03;31.92;;;1.90;81.00;;;-0.22;91.47;97484.63;4991129;28;20033;-67
2021/12/19 00:20:30;;;;;;;78.35;46.97;;;1.80;81.20;;;-0.21;91.64;97485.47;5005164;28;20042;-67
2021/12/19 00:22:56;;;;;;;69.00;37.40;;;1.80;81.30;;;-0.26;91.97;97488.28;5002701;28;20516;-68
2021/12/19 00:25:22;;;;;;;66.15;35.50;;;1.80;81.50;;;-0.25;91.50;97505.47;4993668;28;20038;-67
2021/12/19 00:27:47;;;;;;;59.00;31.10;;;1.80;81.30;;;-0.26;91.94;97503.81;4986955;28;20041;-68
2021/12/19 00:30:13;;;;;;;60.95;31.10;;;1.90;81.30;;;-0.31;92.14;97500.66;5009688;28;20030;-69
2021/12/19 00:32:40;;;;;;;59.40;31.30;;;1.90;80.90;;;-0.28;91.62;97516.00;4977201;28;20166;-68
2021/12/19 00:35:06;;;;;;;57.45;30.55;;;1.90;80.90;;;-0.29;92.40;97508.31;5003932;28;20473;-69
2021/12/19 00:37:32;;;;;;;63.10;32.33;;;1.90;80.90;;;-0.32;92.03;97505.00;4971384;28;20057;-69
2021/12/19 00:39:58;;;;;;;68.38;35.03;;;1.90;81.00;;;-0.31;92.51;97498.91;4987645;28;20120;-69
2021/12/19 00:42:35;;;;;;;64.35;32.17;;;1.70;81.40;;;-0.34;91.99;97496.50;5006933;28;20081;-69
2021/12/19 00:45:05;;;;;;;74.35;37.10;;;1.70;81.70;;;-0.33;91.92;97497.34;5009362;28;20070;-69
2021/12/19 00:47:31;;;;;;;65.07;33.60;;;1.70;81.70;;;-0.39;92.19;97483.00;4981221;28;20033;-67
2021/12/19 00:49:57;;;;;;;70.30;34.78;;;1.70;81.80;;;-0.37;92.37;97485.50;4981266;28;20054;-67
2021/12/19 00:52:23;;;;;;;69.95;35.08;;;1.70;81.70;;;-0.39;92.90;97482.19;4994700;28;20026;-68
2021/12/19 00:54:48;;;;;;;68.22;32.50;;;1.70;82.00;;;-0.45;92.61;97467.88;5009638;28;20125;-68
2021/12/19 00:57:14;;;;;;;68.22;32.72;;;1.50;82.50;;;-0.50;92.55;97458.69;4968459;28;20030;-68
2021/12/19 00:59:40;;;;;;;61.78;29.95;;;1.40;82.50;;;-0.50;93.05;97458.69;5003615;28;20076;-67
2021/12/19 01:02:06;;;;;;;64.15;30.52;;;1.40;82.40;;;-0.54;93.05;97462.38;5001116;28;20076;-68
2021/12/19 01:04:31;;;;;;;67.40;31.85;;;1.50;83.10;;;-0.54;93.47;97459.78;5009538;28;20516;-67
2021/12/19 01:07:00;;;;;;;59.72;31.30;;;1.50;82.90;;;-0.53;93.18;97470.03;4996052;28;20480;-67
2021/12/19 01:09:27;;;;;;;78.25;39.10;;;1.60;82.50;;;-0.55;93.56;97471.03;5010059;28;20049;-67
2021/12/19 01:11:52;;;;;;;71.60;33.75;;;1.50;82.70;;;-0.57;93.31;97467.72;4997031;28;20247;-67
2021/12/19 01:14:18;;;;;;;62.92;30.92;;;1.60;82.90;;;-0.62;93.26;97466.22;5001069;28;20061;-68
2021/12/19 01:16:44;;;;;;;62.60;30.05;;;1.50;83.20;;;-0.62;93.72;97461.06;5004986;28;20069;-68
2021/12/19 01:19:10;;;;;;;75.55;36.25;;;1.40;83.10;;;-0.64;93.50;97469.81;4989175;28;20112;-68
2021/12/19 01:21:36;;;;;;;70.18;33.63;;;1.40;83.40;;;-0.66;93.60;97464.75;5008478;28;20041;-68
2021/12/19 01:24:01;;;;;;;69.88;32.88;;;1.30;83.30;;;-0.68;93.37;97466.56;4979833;28;20033;-68
2021/12/19 01:26:27;;;;;;;80.22;38.08;;;1.40;82.90;;;-0.66;93.49;97469.91;4994671;28;20502;-67
2021/12/19 01:28:53;;;;;;;80.90;36.17;;;1.40;82.90;;;-0.67;93.96;97468.25;5009538;28;20517;-68
2021/12/19 01:31:19;;;;;;;62.15;28.15;;;1.40;83.10;;;-0.68;93.54;97476.06;5001844;28;20034;-68
2021/12/19 01:33:44;;;;;;;60.05;27.70;;;1.40;83.20;;;-0.70;93.97;97476.13;4988165;28;20061;-68
2021/12/19 01:36:11;;;;;;;60.60;28.23;;;1.30;83.20;;;-0.68;94.07;97486.38;5008750;28;20084;-67
2021/12/19 01:38:37;;;;;;;61.95;28.00;;;1.40;83.20;;;-0.68;93.98;97479.50;5007007;28;20030;-68
2021/12/19 01:41:03;;;;;;;59.20;27.85;;;1.50;83.00;;;-0.67;94.38;97483.75;5002785;28;20053;-68
2021/12/19 01:43:31;;;;;;;56.90;27.33;;;1.40;83.00;;;-0.67;94.10;97478.56;4973924;28;20031;-67
2021/12/19 01:45:57;;;;;;;57.72;27.48;;;1.40;83.10;;;-0.66;93.93;97480.25;5001501;28;20410;-67
2021/12/19 01:48:22;;;;;;;61.53;28.13;;;1.40;83.20;;;-0.72;93.95;97464.22;4985255;28;20045;-67
2021/12/19 01:50:48;;;;;;;61.97;27.33;;;1.40;82.90;;;-0.68;94.32;97473.47;4992801;28;20038;-68
2021/12/19 01:53:14;;;;;;;57.55;27.50;;;1.40;83.30;;;-0.68;94.04;97469.16;5000868;28;20049;-67
2021/12/19 01:55:41;;;;;;;57.45;27.77;;;1.50;83.00;;;-0.65;94.59;97470.75;4991371;28;20417;-68
2021/12/19 01:58:07;;;;;;;65.60;28.27;;;1.60;83.00;;;-0.63;94.17;97468.91;4972006;28;20057;-67
2021/12/19 02:00:38;;;;;;;63.25;27.40;;;1.50;83.00;;;-0.65;94.68;97465.56;4990944;28;20038;-67
2021/12/19 02:03:08;;;;;;;57.33;27.15;;;1.50;83.30;;;-0.66;94.42;97464.75;4985801;28;20034;-68
2021/12/19 02:05:34;;;;;;;60.83;27.52;;;1.40;83.10;;;-0.65;94.38;97450.06;4996077;23;20069;-68
2021/12/19 02:08:00;;;;;;;62.20;28.42;;;1.40;83.50;;;-0.66;94.64;97444.06;4968923;28;20034;-68
2021/12/19 02:10:29;;;;;;;65.30;28.33;;;1.30;83.60;;;-0.66;94.55;97454.41;4974641;28;20042;-68
2021/12/19 02:12:55;;;;;;;61.45;27.60;;;1.50;83.50;;;-0.68;94.79;97461.41;4991582;28;20102;-68
2021/12/19 02:15:23;;;;;;;67.85;29.50;;;1.30;84.10;;;-0.70;95.00;97458.06;4975084;28;20429;-67
2021/12/19 02:17:51;;;;;;;62.40;27.95;;;1.40;83.90;;;-0.68;95.33;97460.53;4988514;28;20037;-67
2021/12/19 02:20:17;;;;;;;64.78;28.27;;;1.40;83.90;;;-0.68;95.32;97455.38;5007003;28;20036;-68
2021/12/19 02:22:43;;;;;;;67.60;29.23;;;1.40;83.90;;;-0.69;95.52;97448.53;4991730;28;20038;-67
2021/12/19 02:25:09;;;;;;;79.05;30.67;;;1.30;84.30;;;-0.70;95.09;97452.88;4989406;28;20569;-68
2021/12/19 02:27:35;;;;;;;74.30;31.02;;;1.30;84.20;;;-0.71;95.48;97456.38;4987057;28;20057;-68
2021/12/19 02:30:01;;;;;;;77.03;30.52;;;1.50;84.20;;;-0.70;95.64;97458.06;4972727;28;20124;-68
2021/12/19 02:32:29;;;;;;;67.90;28.88;;;1.50;84.00;;;-0.68;95.83;97460.53;4990289;28;20456;-69
2021/12/19 02:34:57;;;;;;;72.10;30.38;;;1.60;84.00;;;-0.67;95.92;97463.06;5002475;28;20039;-68
2021/12/19 02:50:33;;;;;;;80.03;30.02;;;1.60;84.30;;;-0.57;96.67;97471.13;5002494;28;20125;-68
2021/12/19 02:52:59;;;;;;;72.35;30.00;;;1.60;84.30;;;-0.56;96.53;97459.03;4990119;28;20042;-68
2021/12/19 02:55:25;;;;;;;72.95;30.63;;;1.60;84.60;;;-0.54;96.49;97458.03;5006266;28;20475;-68
2021/12/19 02:57:51;;;;;;;74.20;29.05;;;1.70;84.50;;;-0.53;97.03;97451.09;5004677;28;20026;-67
2021/12/19 03:00:24;;;;;;;80.55;30.77;;;1.60;84.60;;;-0.55;97.21;97434.84;4999221;28;20100;-68
2021/12/19 03:02:50;;;;;;;77.22;30.95;;;1.50;85.20;;;-0.56;96.78;97430.59;4985196;28;20050;-68
2021/12/19 03:05:16;;;;;;;90.25;29.33;;;1.40;85.20;;;-0.57;97.26;97422.03;4985985;28;20397;-69
2021/12/19 03:07:43;;;;;;;106.90;46.38;;;1.50;85.20;;;-0.58;97.19;97420.38;4990078;28;20038;-69
2021/12/19 03:10:56;;;;;;;125.18;52.95;;;1.40;85.60;;;-0.57;97.53;97422.03;4973072;28;20600;-67
2021/12/19 03:18:41;;;;;;;86.78;29.45;;;1.50;84.90;;;-0.68;96.80;97401.97;4992412;28;20037;-68
2021/12/19 03:21:11;;;;;;;87.65;29.23;;;1.10;85.40;;;-0.74;96.83;97391.16;4974264;28;20034;-67
2021/12/19 03:23:37;;;;;;;85.73;30.37;;;1.20;85.70;;;-0.77;97.19;97396.50;4987352;28;20398;-67
2021/12/19 03:26:03;;;;;;;79.97;29.65;;;1.20;85.90;;;-0.80;97.70;97405.25;4986083;28;20321;-68
2021/12/19 03:28:28;;;;;;;79.68;28.85;;;1.10;85.90;;;-0.80;97.72;97410.41;4985256;28;20633;-68
2021/12/19 03:30:54;;;;;;;81.03;29.45;;;1.30;85.80;;;-0.79;98.00;97414.66;4987639;28;20042;-67
2021/12/19 03:33:20;;;;;;;79.47;28.20;;;1.40;85.80;;;-0.77;98.03;97414.56;5003257;28;20120;-69
2021/12/19 03:35:46;;;;;;;75.15;29.17;;;1.40;85.60;;;-0.76;98.07;97424.81;5002810;28;20045;-67
2021/12/19 03:38:13;;;;;;;81.05;29.55;;;1.40;85.60;;;-0.74;98.31;97415.22;4988273;28;20129;-67
2021/12/19 03:40:42;;;;;;;79.15;30.35;;;1.40;85.50;;;-0.74;98.05;97410.06;4971800;28;20105;-67
2021/12/19 03:43:14;;;;;;;76.68;28.27;;;1.40;85.70;;;-0.73;98.49;97411.72;4979788;28;20027;-67
2021/12/19 03:45:41;;;;;;;71.20;27.67;;;1.30;85.90;;;-0.73;98.54;97406.56;4998614;28;20060;-67
2021/12/19 03:48:10;;;;;;;65.57;25.63;;;1.30;85.80;;;-0.73;98.41;97397.97;5014683;28;20060;-68
2021/12/19 03:50:36;;;;;;;72.70;26.38;;;1.20;86.00;;;-0.74;98.64;97389.38;5013425;28;20037;-68
2021/12/19 03:53:02;;;;;;;63.65;25.50;;;1.20;86.00;;;-0.74;98.30;97391.16;4981088;28;20663;-68
2021/12/19 03:55:28;;;;;;;73.03;27.23;;;1.30;86.10;;;-0.73;98.42;97382.47;4980175;28;20034;-67
2021/12/19 03:57:57;;;;;;;70.00;27.60;;;1.30;86.00;;;-0.74;98.80;97384.22;5014625;28;20113;-67
2021/12/19 04:00:24;;;;;;;71.03;27.17;;;1.30;86.40;;;-0.71;98.76;97396.13;5000435;28;20030;-67
2021/12/19 04:02:53;;;;;;;69.80;25.85;;;1.40;86.00;;;-0.70;98.74;97392.63;4998061;28;20034;-67
2021/12/19 04:05:19;;;;;;;67.93;25.77;;;1.30;86.20;;;-0.69;98.66;97392.53;4999284;28;20058;-67
2021/12/19 04:07:45;;;;;;;65.15;25.80;;;1.40;86.00;;;-0.68;99.00;97383.03;4990832;28;20654;-68
2021/12/19 04:10:10;;;;;;;64.85;25.10;;;1.40;86.10;;;-0.69;99.04;97374.44;5009184;28;20394;-68
2021/12/19 04:12:36;;;;;;;70.75;25.05;;;1.40;86.10;;;-0.68;99.00;97373.56;5036454;28;20034;-68
2021/12/19 04:15:06;;;;;;;62.90;24.98;;;1.40;85.80;;;-0.69;98.99;97377.03;4992018;28;20145;-67
2021/12/19 04:17:33;;;;;;;58.80;24.10;;;1.40;86.10;;;-0.68;98.77;97378.72;4993120;28;20026;-67
2021/12/19 04:19:58;;;;;;;61.22;24.70;;;1.50;85.90;;;-0.66;98.99;97371.72;4974345;28;20502;-68
2021/12/19 04:22:24;;;;;;;74.75;25.08;;;1.50;85.60;;;-0.67;98.87;97379.56;5006907;28;20081;-67
2021/12/19 04:24:50;;;;;;;66.20;24.25;;;1.40;85.70;;;-0.69;98.67;97382.19;5009281;28;20034;-67
2021/12/19 04:27:16;;;;;;;69.03;24.65;;;1.40;85.90;;;-0.68;98.47;97376.16;4990439;28;20030;-68
2021/12/19 04:29:41;;;;;;;67.85;24.60;;;1.40;85.90;;;-0.69;98.86;97366.69;5009593;28;20038;-68
2021/12/19 04:32:08;;;;;;;79.57;24.75;;;1.40;86.00;;;-0.67;99.12;97362.31;5006674;28;20105;-67
2021/12/19 04:34:33;;;;;;;70.22;24.05;;;1.40;85.80;;;-0.70;99.11;97357.28;5005310;28;20494;-68
2021/12/19 04:37:08;;;;;;;72.43;24.17;;;1.40;85.90;;;-0.69;98.94;97346.03;4960254;28;20038;-67
2021/12/19 04:39:40;;;;;;;64.85;23.42;;;1.40;85.70;;;-0.71;99.34;97347.88;4993668;28;20379;-67
2021/12/19 05:01:27;;;;;;;66.82;22.55;;;0.90;87.40;;;-0.95;99.87;97326.03;4989656;28;20034;-68
2021/12/19 05:14:36;;;;;;;54.92;21.20;;;1.30;86.30;;;-0.86;99.64;97353.13;5002502;28;20096;-68
2021/12/19 05:17:08;;;;;;;52.35;19.60;;;1.30;86.00;;;-0.84;100.00;97352.09;4987347;28;20046;-68
2021/12/19 05:19:52;;;;;;;50.80;18.35;;;1.30;86.10;;;-0.82;99.86;97360.59;4991330;28;20112;-68
2021/12/19 05:22:20;;;;;;;47.58;19.15;;;1.30;86.00;;;-0.82;99.63;97363.19;4994923;28;20037;-67
2021/12/19 05:25:00;;;;;;;54.60;19.38;;;1.20;86.00;;;-0.82;99.51;97364.94;4990115;28;20084;-68
2021/12/19 05:27:26;;;;;;;61.47;21.23;;;1.20;86.10;;;-0.81;99.48;97353.66;5007167;28;20120;-68
2021/12/19 05:29:52;;;;;;;53.60;19.83;;;1.20;86.00;;;-0.81;99.38;97351.91;4988171;28;20041;-68
2021/12/19 05:32:18;;;;;;;50.25;20.02;;;1.20;86.00;;;-0.81;99.66;97356.25;5005364;28;20501;-69
2021/12/19 05:34:43;;;;;;;52.00;20.67;;;1.20;86.10;;;-0.81;99.77;97351.91;4987163;28;20035;-68
2021/12/19 05:45:23;;;;;;;40.85;17.13;;;1.20;86.00;;;-0.84;99.48;97323.69;5006028;28;20053;-69
2021/12/19 05:47:50;;;;;;;47.13;18.00;;;1.10;86.20;;;-0.86;99.22;97320.38;4988299;28;20413;-68
2021/12/19 05:50:20;;;;;;;44.17;17.27;;;1.10;86.20;;;-0.87;99.20;97320.47;4984025;28;20034;-68
2021/12/19 05:52:47;;;;;;;53.10;17.52;;;1.10;86.30;;;-0.92;99.30;97308.59;4991130;28;20034;-68
2021/12/19 05:55:13;;;;;;;50.35;17.02;;;1.00;86.60;;;-0.89;99.80;97317.97;4988449;28;20034;-68
2021/12/19 05:57:39;;;;;;;47.35;17.65;;;1.10;86.40;;;-0.89;99.57;97323.13;5004674;28;20042;-68
2021/12/19 06:00:07;;;;;;;47.35;16.15;;;1.20;86.40;;;-0.86;99.88;97325.53;5005576;28;20688;-68
2021/12/19 06:02:33;;;;;;;51.25;17.77;;;1.20;86.20;;;-0.85;99.38;97332.34;4989373;28;20414;-68
2021/12/19 06:04:58;;;;;;;48.95;20.67;;;1.20;86.00;;;-0.82;100.00;97324.44;4988188;28;20057;-69
2021/12/19 06:07:24;;;;;;;48.60;20.70;;;1.30;86.90;;;-0.78;100.00;97323.31;5006713;28;20034;-68
2021/12/19 06:09:50;;;;;;;48.65;19.83;;;1.40;86.60;;;-0.77;100.00;97321.56;4987534;28;20061;-68
2021/12/19 06:12:15;;;;;;;46.28;17.67;;;1.30;86.70;;;-0.74;100.00;97317.06;4985975;28;20100;-68
2021/12/19 06:14:41;;;;;;;47.30;17.55;;;1.30;86.00;;;-0.75;99.93;97312.81;4989927;28;20191;-68
2021/12/19 06:17:07;;;;;;;50.28;18.23;;;1.40;85.90;;;-0.75;99.78;97320.56;5007953;28;20115;-68
2021/12/19 06:19:36;;;;;;;52.58;18.63;;;1.20;85.60;;;-0.76;100.00;97321.47;5007752;28;20065;-68
2021/12/19 06:22:04;;;;;;;47.13;19.45;;;1.30;86.10;;;-0.75;100.00;97319.72;4991015;28;20034;-67
2021/12/19 06:24:30;;;;;;;57.97;20.42;;;1.40;85.90;;;-0.77;99.72;97327.56;5005926;28;20025;-67
2021/12/19 06:26:56;;;;;;;55.42;20.20;;;1.30;85.60;;;-0.77;99.59;97319.81;4988722;28;20081;-67
2021/12/19 06:29:21;;;;;;;50.58;18.52;;;1.40;85.70;;;-0.74;99.66;97322.22;5001654;28;20029;-68
2021/12/19 06:31:47;;;;;;;45.92;18.48;;;1.30;85.50;;;-0.74;100.00;97311.06;5006167;28;20446;-73
2021/12/19 06:34:13;;;;;;;45.08;17.88;;;1.50;85.60;;;-0.74;99.59;97306.72;4991644;28;20510;-67
2021/12/19 06:36:40;;;;;;;64.00;26.48;;;1.30;85.30;;;-0.75;100.00;97310.22;4983250;28;20100;-77
2021/12/19 06:39:06;;;;;;;70.18;28.05;;;1.30;85.80;;;-0.74;100.00;97311.88;4974121;28;20042;-68
2021/12/19 06:41:34;;;;;;;48.60;18.67;;;1.40;86.30;;;-0.74;99.91;97308.47;4989942;28;20037;-71
2021/12/19 06:44:00;;;;;;;47.80;18.85;;;1.20;86.00;;;-0.77;100.00;97309.47;4989984;28;20509;-68
2021/12/19 06:46:25;;;;;;;52.47;17.63;;;1.20;86.40;;;-0.86;99.59;97297.13;4991256;28;20137;-68
2021/12/19 06:48:51;;;;;;;53.22;18.95;;;1.00;86.10;;;-0.86;100.00;97291.94;4972555;28;20065;-67
2021/12/19 06:51:17;;;;;;;48.20;20.52;;;1.10;87.00;;;-0.83;100.00;97281.44;5008065;28;20045;-68
2021/12/19 06:53:42;;;;;;;57.85;20.95;;;1.20;86.70;;;-0.83;100.00;97281.44;5003715;28;20101;-67
2021/12/19 06:56:08;;;;;;;59.45;18.20;;;1.20;86.10;;;-0.85;100.00;97267.78;4991804;28;20100;-69
2021/12/19 06:58:34;;;;;;;50.20;18.73;;;1.10;85.80;;;-0.86;99.80;97280.78;4990699;28;20172;-68
2021/12/19 07:01:00;;;;;;;47.03;19.95;;;1.10;86.10;;;-0.89;99.88;97281.81;5008400;28;20085;-68
2021/12/19 07:03:25;;;;;;;51.47;20.75;;;1.00;85.90;;;-0.92;99.49;97276.78;5008005;28;20116;-68
2021/12/19 07:05:51;;;;;;;48.72;17.20;;;1.10;86.10;;;-0.96;99.46;97280.47;4991332;28;20061;-68
2021/12/19 07:08:17;;;;;;;42.53;16.95;;;0.90;86.00;;;-0.95;99.67;97284.72;4991175;28;20038;-69
2021/12/19 07:10:43;;;;;;;42.53;16.67;;;1.10;86.10;;;-0.95;99.58;97282.13;4989917;28;21346;-68
2021/12/19 07:13:09;;;;;;;39.08;16.13;;;1.10;85.70;;;-0.95;99.50;97305.38;4992255;28;20045;-68
2021/12/19 07:15:34;;;;;;;37.30;15.80;;;1.00;85.70;;;-0.97;99.59;97302.88;4990789;28;20120;-69
2021/12/19 07:18:03;;;;;;;40.50;17.73;;;1.00;85.90;;;-0.97;99.28;97295.13;4990427;28;20095;-68
2021/12/19 07:20:30;;;;;;;57.00;26.90;;;1.00;85.90;;;-0.97;99.68;97282.22;4992252;28;20026;-69
2021/12/19 07:22:56;;;;;;;52.88;20.23;;;1.10;86.40;;;-0.95;99.65;97302.78;4969457;28;20054;-69
2021/12/19 07:25:22;;;;;;;50.42;18.35;;;1.10;86.10;;;-0.96;99.69;97298.56;5004715;28;20493;-70
2021/12/19 07:27:48;;;;;;;42.10;17.70;;;0.90;85.70;;;-0.98;99.54;97287.47;5000086;28;20116;-71
2021/12/19 07:30:13;;;;;;;48.83;17.30;;;1.00;86.10;;;-0.98;99.78;97287.47;5004101;28;20084;-69
2021/12/19 07:32:39;;;;;;;43.05;16.77;;;1.10;85.80;;;-1.00;99.27;97290.16;5006829;28;20160;-66
2021/12/19 07:35:08;;;;;;;40.95;15.85;;;0.90;85.60;;;-0.99;99.64;97290.97;4995628;28;20042;-67
2021/12/19 07:37:36;;;;;;;38.47;15.50;;;1.10;85.70;;;-0.98;99.44;97282.31;4980686;28;20045;-67
2021/12/19 07:40:13;;;;;;;60.55;17.58;;;1.10;85.30;;;-1.01;99.15;97274.75;4995078;28;20026;-68
2021/12/19 07:42:39;;;;;;;44.50;16.48;;;1.00;85.50;;;-1.02;99.18;97267.94;4982897;28;20030;-72
2021/12/19 07:45:04;;;;;;;48.42;18.45;;;0.90;85.60;;;-1.04;99.19;97262.03;4990472;28;20143;-70
2021/12/19 07:47:30;;;;;;;50.20;19.88;;;0.90;85.90;;;-1.04;99.62;97251.69;4976528;28;20100;-72
2021/12/19 07:49:56;;;;;;;52.33;20.23;;;0.90;86.00;;;-1.09;99.46;97264.03;4986929;28;20066;-69
2021/12/19 07:52:22;;;;;;;49.13;19.40;;;0.80;86.40;;;-1.13;99.47;97265.97;4998593;28;20026;-69
2021/12/19 07:54:47;;;;;;;52.38;18.52;;;0.70;86.30;;;-1.13;99.67;97259.94;4976186;28;20489;-74
2021/12/19 07:57:13;;;;;;;55.80;19.25;;;0.80;86.30;;;-1.18;99.80;97259.41;4992423;28;20506;-70
2021/12/19 07:59:39;;;;;;;43.63;16.95;;;0.60;86.50;;;-1.22;99.56;97261.31;4993682;28;20034;-69
2021/12/19 08:02:05;;;;;;;35.47;15.20;;;0.60;86.90;;;-1.21;99.63;97254.41;4980517;28;20070;-68
2021/12/19 08:04:31;;;;;;;41.58;16.40;;;0.70;86.90;;;-1.18;99.42;97246.47;4997086;28;20030;-67
2021/12/19 08:06:57;;;;;;;46.75;18.35;;;0.90;86.20;;;-1.14;99.98;97260.88;4997755;28;20126;-66
2021/12/19 08:09:58;;;;;;;43.35;19.05;;;0.90;87.00;;;-1.10;100.00;97250.31;4978340;28;20110;-69
2021/12/19 08:12:11;;;;;;;44.90;19.67;;;1.00;86.30;;;-1.06;100.00;97258.69;4992100;28;20038;-67
2021/12/19 08:14:37;;;;;;;44.72;19.25;;;1.00;86.40;;;-1.04;99.66;97254.28;5001062;28;20030;-74
2021/12/19 08:17:03;;;;;;;41.90;19.23;;;1.00;85.60;;;-1.02;99.44;97267.94;4962950;28;20497;-68
2021/12/19 08:19:28;;;;;;;50.75;17.95;;;1.10;85.70;;;-1.02;99.37;97252.44;5012043;28;20038;-69
2021/12/19 08:21:54;;;;;;;48.17;16.65;;;1.10;85.60;;;-1.01;99.32;97244.59;4994386;28;20084;-71
2021/12/19 08:24:20;;;;;;;42.50;16.65;;;1.00;86.20;;;-1.00;99.86;97254.00;5008161;28;20034;-67
2021/12/19 08:26:46;;;;;;;37.28;17.40;;;1.10;86.00;;;-1.00;99.34;97248.00;4992753;28;20038;-68
2021/12/19 08:29:12;;;;;;;46.42;18.13;;;1.10;85.70;;;-0.99;99.72;97239.34;4993024;28;20038;-69
2021/12/19 08:31:39;;;;;;;48.65;18.73;;;1.00;85.40;;;-1.00;99.44;97233.34;5004433;28;20482;-76
2021/12/19 08:34:04;;;;;;;44.60;19.70;;;1.00;85.40;;;-0.97;98.96;97232.31;4976349;28;20473;-67
2021/12/19 08:36:30;;;;;;;42.78;19.50;;;1.10;85.60;;;-0.94;99.63;97225.22;5008858;28;20056;-67
2021/12/19 08:38:57;;;;;;;49.88;20.95;;;1.20;85.40;;;-0.92;99.88;97227.72;5011308;28;20085;-66
2021/12/19 08:41:23;;;;;;;51.65;20.42;;;1.20;85.30;;;-0.90;99.76;97213.00;5010233;28;20026;-67
2021/12/19 08:43:49;;;;;;;49.97;20.48;;;1.20;85.20;;;-0.91;99.13;97216.47;4992958;28;20406;-66
2021/12/19 08:46:14;;;;;;;44.63;18.85;;;1.10;85.50;;;-0.86;99.74;97217.03;4992470;28;20030;-67
2021/12/19 08:48:40;;;;;;;47.78;20.90;;;1.30;85.20;;;-0.83;99.52;97224.59;4977988;28;20037;-66
2021/12/19 08:51:06;;;;;;;44.42;19.48;;;1.30;85.10;;;-0.85;99.58;97226.44;4975308;28;20210;-66
2021/12/19 08:53:32;;;;;;;46.40;21.83;;;1.10;85.80;;;-0.83;99.22;97218.59;5016533;28;20065;-66
2021/12/19 08:55:58;;;;;;;46.78;20.63;;;1.30;85.40;;;-0.81;99.51;97230.50;4969885;28;20513;-66
2021/12/19 08:58:23;;;;;;;45.83;20.58;;;1.30;85.00;;;-0.79;99.27;97227.84;5009282;28;20080;-66
2021/12/19 09:00:49;;;;;;;48.40;21.95;;;1.30;85.10;;;-0.78;99.17;97229.50;5009105;28;20026;-66
2021/12/19 09:03:16;;;;;;;46.72;21.35;;;1.30;84.90;;;-0.75;99.32;97227.56;5004099;28;20041;-66
2021/12/19 09:05:42;;;;;;;46.15;21.10;;;1.30;84.60;;;-0.78;98.83;97232.91;4991698;28;20529;-67
2021/12/19 09:08:07;;;;;;;46.55;21.70;;;1.30;85.20;;;-0.75;98.89;97219.81;5011324;28;20072;-67
2021/12/19 09:10:33;;;;;;;49.10;22.00;;;1.40;84.90;;;-0.73;99.03;97217.97;4993244;28;20094;-66
2021/12/19 09:13:00;;;;;;;37.05;16.70;;;1.40;85.00;;;-0.71;99.32;97223.03;5007624;28;20045;-67
2021/12/19 09:15:26;;;;;;;40.60;16.77;;;1.40;85.00;;;-0.70;99.31;97230.69;4990007;28;20030;-66
2021/12/19 09:17:51;;;;;;;36.78;17.05;;;1.40;84.90;;;-0.68;99.13;97220.25;5003297;28;20246;-66
2021/12/19 09:20:17;;;;;;;48.47;18.17;;;1.40;84.80;;;-0.65;99.29;97217.53;5009696;28;20033;-67
2021/12/19 09:22:43;;;;;;;37.65;17.30;;;1.50;84.90;;;-0.67;99.00;97220.19;5009040;28;20208;-66
2021/12/19 09:25:09;;;;;;;51.78;21.35;;;1.40;85.30;;;-0.64;99.06;97214.84;4993714;28;20053;-66
2021/12/19 09:27:35;;;;;;;86.13;46.15;;;1.60;84.90;;;-0.60;99.19;97225.81;4994031;28;20059;-68
2021/12/19 09:30:01;;;;;;;63.42;32.65;;;1.60;84.70;;;-0.63;99.30;97224.25;5005103;28;20125;-69
2021/12/19 09:32:27;;;;;;;57.72;30.75;;;1.40;84.80;;;-0.59;98.98;97216.31;5025269;28;20125;-68
2021/12/19 09:34:54;;;;;;;52.20;21.92;;;1.60;84.90;;;-0.60;98.81;97219.81;4992376;28;20037;-67
2021/12/19 09:37:20;;;;;;;48.75;22.85;;;1.50;84.80;;;-0.60;99.29;97219.81;4979460;28;20043;-68
2021/12/19 09:39:49;;;;;;;52.63;25.77;;;1.50;84.70;;;-0.57;98.97;97206.72;4959872;28;20026;-73
2021/12/19 09:42:15;;;;;;;44.95;21.83;;;1.50;85.10;;;-0.57;98.83;97198.94;5009759;28;20049;-69
2021/12/19 09:44:41;;;;;;;46.28;22.73;;;1.60;84.90;;;-0.53;99.02;97200.41;4993925;28;20564;-68
2021/12/19 09:47:07;;;;;;;37.60;18.08;;;1.60;84.70;;;-0.50;98.87;97195.06;4978261;28;20053;-68
2021/12/19 09:49:34;;;;;;;109.68;52.40;;;1.60;84.70;;;-0.48;98.86;97177.69;4993554;28;20087;-68
2021/12/19 09:52:01;;;;;;;42.88;20.13;;;1.70;84.80;;;-0.47;99.50;97179.38;5009891;28;20410;-69
2021/12/19 09:54:27;;;;;;;35.13;15.50;;;1.60;84.50;;;-0.46;99.06;97181.03;5008025;28;20475;-69
2021/12/19 09:56:53;;;;;;;32.70;15.93;;;1.60;84.70;;;-0.44;99.01;97171.44;5010034;28;20038;-71
2021/12/19 09:59:20;;;;;;;47.40;15.25;;;1.70;84.80;;;-0.42;99.41;97167.00;5010097;28;20163;-68
2021/12/19 10:01:47;;;;;;;33.80;14.80;;;1.70;84.30;;;-0.44;98.77;97148.19;4976846;28;20367;-68
2021/12/19 10:04:39;;;;;;;42.45;15.02;;;1.60;84.70;;;-0.43;99.30;97140.34;4991856;28;20077;-69
2021/12/19 10:07:09;;;;;;;;;;;1.70;84.70;;;-0.39;99.61;97140.97;5026026;28;20060;-69
2021/12/19 10:09:38;;;;;;;32.05;14.90;;;1.80;84.70;;;-0.37;99.06;97128.78;5025478;28;20297;-70
2021/12/19 10:15:12;;;;;;;46.80;15.75;;;1.80;84.70;;;-0.33;99.03;97114.72;4984552;28;20050;-68
2021/12/19 10:17:39;;;;;;;38.90;16.13;;;1.90;84.10;;;-0.32;99.35;97106.88;4986018;28;20029;-66
2021/12/19 10:20:15;;;;;;;29.70;14.05;;;1.80;84.20;;;-0.29;99.09;97099.84;5007978;28;20022;-67
2021/12/19 10:22:47;;;;;;;29.83;13.43;;;1.90;84.40;;;-0.27;98.94;97093.66;4990749;28;20545;-67
2021/12/19 10:25:21;;;;;;;29.55;13.95;;;2.00;83.80;;;-0.31;98.39;97085.25;4989645;28;20490;-67
2021/12/19 10:27:54;;;;;;;31.35;14.32;;;1.70;84.20;;;-0.30;98.35;97083.50;4978621;28;20038;-67
2021/12/19 10:30:28;;;;;;;34.33;17.75;;;1.70;84.50;;;-0.28;99.14;97071.31;4992303;28;20387;-67
2021/12/19 10:33:02;;;;;;;45.38;14.95;;;1.90;84.90;;;-0.23;99.25;97082.19;5001749;28;20041;-67
2021/12/19 10:35:40;;;;;;;30.20;14.05;;;1.80;84.40;;;-0.24;99.45;97072.75;5008971;28;20033;-69
2021/12/19 10:38:17;;;;;;;24.10;12.45;;;1.80;85.00;;;-0.19;99.25;97064.72;4999632;28;20109;-69
2021/12/19 10:40:51;;;;;;;25.48;12.40;;;1.90;85.00;;;-0.18;99.20;97050.88;4983183;28;20505;-70
2021/12/19 10:43:18;;;;;;;32.67;14.48;;;2.00;84.70;;;-0.15;98.98;97051.50;4992911;28;20034;-70
2021/12/19 10:45:50;;;;;;;46.30;23.48;;;2.00;84.60;;;-0.12;99.22;97050.47;5003019;28;20076;-74
2021/12/19 10:48:31;;;;;;;40.38;19.80;;;2.10;84.80;;;-0.06;99.19;97055.22;4991657;28;20501;-70
2021/12/19 10:51:10;;;;;;;45.40;17.33;;;2.20;84.70;;;-0.02;99.21;97052.34;4997301;28;20410;-74
2021/12/19 10:53:46;;;;;;;36.95;17.00;;;2.10;84.10;;;-0.04;98.59;97056.78;5010182;28;20425;-68
2021/12/19 10:56:13;;;;;;;31.67;16.65;;;2.00;84.50;;;-0.01;98.75;97053.16;4995354;28;20058;-68
2021/12/19 10:58:56;;;;;;;38.75;16.02;;;2.20;84.40;;;0.01;99.10;97056.50;4988785;28;20088;-66
2021/12/19 11:01:38;;;;;;;31.40;15.13;;;2.10;84.10;;;0.02;98.47;97047.81;4977765;28;20054;-70
2021/12/19 11:04:07;;;;;;;32.42;16.55;;;2.10;84.00;;;0.05;98.79;97049.38;4989212;28;20038;-72
2021/12/19 11:06:40;;;;;;;35.95;17.15;;;2.20;83.80;;;0.05;98.36;97046.78;4976539;28;20046;-69
2021/12/19 11:09:11;;;;;;;31.38;16.45;;;2.10;83.80;;;0.03;98.75;97022.78;5008768;28;20041;-68
2021/12/19 11:12:14;;;;;;;33.83;16.77;;;2.10;84.10;;;0.05;98.74;97031.28;4991324;28;20041;-68
2021/12/19 11:14:43;;;;;;;32.33;16.00;;;2.10;83.90;;;0.06;98.70;97017.41;4962929;28;20365;-69
2021/12/19 11:17:15;;;;;;;33.90;15.35;;;2.20;84.50;;;0.07;98.24;97021.66;4996407;28;20050;-68
2021/12/19 11:19:42;;;;;;;37.45;17.98;;;2.10;84.40;;;0.07;98.59;97006.13;4988622;28;20116;-72
2021/12/19 11:22:08;;;;;;;41.60;17.35;;;2.10;84.60;;;0.10;98.52;96993.00;4973051;28;20045;-66